createdAt,value
2023-02-16T00:00:53.909Z,52.81
2023-02-16T00:05:56.141Z,52.88
2023-02-16T00:11:16.759Z,52.81
2023-02-16T00:16:24.974Z,52.76
2023-02-16T00:21:28.646Z,52.77
2023-02-16T00:26:34.089Z,52.51
2023-02-16T00:31:36.317Z,52.61
2023-02-16T00:36:38.509Z,52.66
2023-02-16T00:41:52.448Z,52.51
2023-02-16T00:46:55.673Z,52.61
2023-02-16T00:51:58.307Z,52.81
2023-02-16T00:57:00.797Z,52.92
2023-02-16T01:02:02.906Z,53.04
2023-02-16T01:07:34.755Z,53.06
2023-02-16T01:12:36.879Z,53.02
2023-02-16T01:17:41.167Z,52.83
2023-02-16T01:22:43.404Z,52.95
2023-02-16T01:27:45.912Z,52.71
2023-02-16T01:32:52.026Z,52.67
2023-02-16T01:37:54.804Z,52.56
2023-02-16T01:43:15.074Z,52.69
2023-02-16T01:48:37.416Z,52.87
2023-02-16T01:53:42.715Z,53.09
2023-02-16T01:58:50.529Z,53.20
2023-02-16T02:04:11.298Z,53.29
2023-02-16T02:09:37.981Z,53.34
2023-02-16T02:14:41.077Z,53.31
2023-02-16T02:19:47.166Z,53.08
2023-02-16T02:25:06.291Z,53.03
2023-02-16T02:30:12.661Z,52.97
2023-02-16T02:35:17.945Z,53.21
2023-02-16T02:40:43.518Z,53.07
2023-02-16T02:45:55.550Z,53.21
2023-02-16T02:51:28.245Z,53.23
2023-02-16T02:56:51.796Z,53.38
2023-02-16T03:01:59.352Z,53.17
2023-02-16T03:07:03.444Z,53.03
2023-02-16T03:12:27.405Z,53.14
2023-02-16T03:17:56.125Z,52.99
2023-02-16T03:23:17.957Z,53.41
2023-02-16T03:28:41.299Z,53.22
2023-02-16T03:33:43.909Z,53.50
2023-02-16T03:38:46.057Z,53.36
2023-02-16T03:43:48.372Z,53.68
2023-02-16T03:48:50.466Z,53.33
2023-02-16T03:53:52.641Z,53.34
2023-02-16T03:58:54.814Z,53.54
2023-02-16T04:03:57.178Z,53.30
2023-02-16T04:08:59.328Z,53.32
2023-02-16T04:14:01.571Z,53.23
2023-02-16T04:19:03.765Z,53.20
2023-02-16T04:24:06.367Z,53.29
2023-02-16T04:29:08.409Z,53.36
2023-02-16T04:34:10.560Z,53.22
2023-02-16T04:39:12.732Z,53.29
2023-02-16T04:44:14.906Z,53.30
2023-02-16T04:49:17.120Z,53.20
2023-02-16T04:54:19.364Z,53.00
2023-02-16T04:59:21.443Z,53.23
2023-02-16T05:04:25.002Z,53.41
2023-02-16T05:09:27.109Z,53.47
2023-02-16T05:14:48.023Z,53.45
2023-02-16T05:19:53.278Z,53.71
2023-02-16T05:24:55.384Z,53.57
2023-02-16T05:29:58.486Z,53.75
2023-02-16T05:35:00.632Z,53.57
2023-02-16T05:40:02.726Z,53.56
2023-02-16T05:45:05.144Z,53.43
2023-02-16T05:50:07.974Z,53.27
2023-02-16T05:55:10.130Z,53.12
2023-02-16T06:00:12.991Z,53.22
2023-02-16T06:05:15.235Z,53.39
2023-02-16T06:10:18.190Z,53.38
2023-02-16T06:15:20.338Z,53.33
2023-02-16T06:20:22.405Z,53.58
2023-02-16T06:25:24.719Z,53.59
2023-02-16T06:30:27.405Z,53.45
2023-02-16T06:35:29.581Z,53.51
2023-02-16T06:40:31.742Z,53.17
2023-02-16T06:45:34.105Z,53.10
2023-02-16T06:50:36.418Z,53.33
2023-02-16T06:55:38.594Z,53.25
2023-02-16T07:00:40.748Z,53.50
2023-02-16T07:05:44.318Z,53.53
2023-02-16T07:10:50.141Z,53.65
2023-02-16T07:15:52.509Z,53.63
2023-02-16T07:20:54.809Z,53.91
2023-02-16T07:25:56.913Z,53.75
2023-02-16T07:30:59.196Z,53.74
2023-02-16T07:36:01.405Z,53.59
2023-02-16T07:41:05.723Z,53.20
2023-02-16T07:46:09.324Z,53.21
2023-02-16T07:51:11.488Z,53.12
2023-02-16T07:56:21.451Z,53.29
2023-02-16T08:01:23.955Z,53.32
2023-02-16T08:06:26.295Z,53.41
2023-02-16T08:11:28.472Z,53.41
2023-02-16T08:16:30.757Z,53.32
2023-02-16T08:21:34.654Z,52.99
2023-02-16T08:26:39.886Z,52.79
2023-02-16T08:31:42.301Z,53.03
2023-02-16T08:36:46.277Z,53.14
2023-02-16T08:41:50.010Z,53.30
2023-02-16T08:46:55.153Z,53.28
2023-02-16T08:51:59.040Z,53.03
2023-02-16T08:57:03.197Z,52.91
2023-02-16T09:02:06.138Z,52.77
2023-02-16T09:07:08.244Z,52.86
2023-02-16T09:12:10.453Z,52.98
2023-02-16T09:17:12.532Z,53.03
2023-02-16T09:22:15.476Z,52.96
2023-02-16T09:27:18.306Z,52.97
2023-02-16T09:32:20.421Z,53.06
2023-02-16T09:37:22.657Z,52.96
2023-02-16T09:42:30.909Z,53.15
2023-02-16T09:47:37.348Z,53.32
2023-02-16T09:52:44.623Z,53.44
2023-02-16T09:57:57.241Z,53.37
2023-02-16T10:03:21.536Z,53.40
2023-02-16T10:08:28.622Z,53.26
2023-02-16T10:14:00.827Z,53.35
2023-02-16T10:19:21.857Z,53.79
2023-02-16T10:24:27.526Z,53.84
2023-02-16T10:29:29.760Z,53.88
2023-02-16T10:34:50.078Z,53.90
2023-02-16T10:40:10.873Z,53.65
2023-02-16T10:45:24.781Z,53.53
2023-02-16T10:50:42.252Z,53.64
2023-02-16T10:55:44.620Z,53.99
2023-02-16T11:01:04.294Z,54.07
2023-02-16T11:06:36.504Z,54.22
2023-02-16T11:11:41.325Z,54.06
2023-02-16T11:16:43.633Z,54.13
2023-02-16T11:21:58.966Z,53.79
2023-02-16T11:27:13.112Z,53.74
2023-02-16T11:32:18.393Z,53.88
2023-02-16T11:37:33.392Z,54.00
2023-02-16T11:42:40.809Z,54.11
2023-02-16T11:47:43.367Z,53.88
2023-02-16T11:52:53.627Z,53.79
2023-02-16T11:57:57.202Z,53.86
2023-02-16T12:03:11.176Z,53.81
2023-02-16T12:08:48.543Z,54.13
2023-02-16T12:14:02.468Z,54.21
2023-02-16T12:19:32.470Z,54.15
2023-02-16T12:24:42.999Z,54.21
2023-02-16T12:30:03.846Z,53.89
2023-02-16T12:35:14.729Z,53.78
2023-02-16T12:40:32.495Z,54.21
2023-02-16T12:45:43.313Z,54.12
2023-02-16T12:50:48.881Z,54.33
2023-02-16T12:55:56.623Z,54.19
2023-02-16T13:01:05.069Z,54.10
2023-02-16T13:06:44.895Z,53.73
2023-02-16T13:11:56.746Z,53.73
2023-02-16T13:17:23.481Z,54.06
2023-02-16T13:22:28.490Z,54.25
2023-02-16T13:27:49.205Z,54.31
2023-02-16T13:32:54.225Z,54.24
2023-02-16T13:38:32.064Z,53.96
2023-02-16T13:43:34.181Z,54.07
2023-02-16T13:48:47.629Z,54.21
2023-02-16T13:54:03.708Z,54.60
2023-02-16T13:59:18.767Z,54.90
2023-02-16T14:04:23.788Z,54.97
2023-02-16T14:09:38.168Z,54.97
2023-02-16T14:14:43.078Z,54.91
2023-02-16T14:20:06.614Z,54.66
2023-02-16T14:25:22.392Z,54.28
2023-02-16T14:30:44.761Z,54.74
2023-02-16T14:35:58.896Z,54.79
2023-02-16T14:41:08.178Z,54.97
2023-02-16T14:46:22.293Z,54.66
2023-02-16T14:51:52.132Z,54.53
2023-02-16T14:57:23.738Z,54.21
2023-02-16T15:02:39.836Z,54.32
2023-02-16T15:07:42.255Z,54.46
2023-02-16T15:12:45.023Z,54.43
2023-02-16T15:17:49.660Z,54.31
2023-02-16T15:22:54.981Z,54.33
2023-02-16T15:28:00.550Z,54.18
2023-02-16T15:33:14.361Z,53.99
2023-02-16T15:38:23.263Z,54.09
2023-02-16T15:43:32.601Z,54.36
2023-02-16T15:48:39.069Z,54.50
2023-02-16T15:54:01.158Z,54.24
2023-02-16T15:59:30.598Z,54.08
2023-02-16T16:04:38.887Z,53.84
2023-02-16T16:09:42.683Z,53.87
2023-02-16T16:14:55.493Z,53.75
2023-02-16T16:20:17.479Z,54.14
2023-02-16T16:25:30.558Z,54.09
2023-02-16T16:30:39.765Z,54.02
2023-02-16T16:35:44.938Z,53.84
2023-02-16T16:41:01.285Z,53.53
2023-02-16T16:46:21.047Z,53.67
2023-02-16T16:51:29.322Z,54.00
2023-02-16T16:56:36.217Z,54.14
2023-02-16T17:01:38.410Z,54.33
2023-02-16T17:06:40.520Z,54.57
2023-02-16T17:11:42.727Z,54.29
2023-02-16T17:16:47.812Z,54.16
2023-02-16T17:21:50.257Z,53.79
2023-02-16T17:26:52.504Z,54.05
2023-02-16T17:31:54.682Z,54.17
2023-02-16T17:37:03.177Z,54.07
2023-02-16T17:42:07.737Z,54.04
2023-02-16T17:47:17.055Z,53.85
2023-02-16T17:52:19.142Z,53.59
2023-02-16T17:57:21.353Z,53.65
2023-02-16T18:02:23.483Z,53.74
2023-02-16T18:07:25.716Z,53.75
2023-02-16T18:12:28.552Z,53.97
2023-02-16T18:17:30.787Z,53.81
2023-02-16T18:22:32.992Z,53.79
2023-02-16T18:27:35.279Z,53.44
2023-02-16T18:32:37.536Z,53.30
2023-02-16T18:37:39.781Z,53.33
2023-02-16T18:42:42.125Z,53.45
2023-02-16T18:47:47.532Z,53.43
2023-02-16T18:52:49.694Z,53.63
2023-02-16T18:57:51.785Z,53.43
2023-02-16T19:02:55.492Z,53.32
2023-02-16T19:07:57.667Z,53.13
2023-02-16T19:13:01.309Z,53.29
2023-02-16T19:18:04.451Z,53.36
2023-02-16T19:23:06.697Z,53.53
2023-02-16T19:28:08.883Z,53.46
2023-02-16T19:33:10.998Z,53.29
2023-02-16T19:38:13.080Z,53.26
2023-02-16T19:43:15.152Z,53.10
2023-02-16T19:48:17.856Z,53.20
2023-02-16T19:53:19.930Z,53.37
2023-02-16T19:58:23.125Z,53.45
2023-02-16T20:03:25.262Z,53.54
2023-02-16T20:08:27.338Z,53.42
2023-02-16T20:13:29.492Z,53.29
2023-02-16T20:18:32.348Z,53.26
2023-02-16T20:23:35.735Z,53.13
2023-02-16T20:28:38.137Z,53.31
2023-02-16T20:33:40.473Z,53.37
2023-02-16T20:38:42.594Z,53.29
2023-02-16T20:43:45.006Z,53.55
2023-02-16T20:48:50.140Z,53.25
2023-02-16T20:53:52.363Z,53.02
2023-02-16T20:58:56.673Z,53.06
2023-02-16T21:04:00.356Z,53.17
2023-02-16T21:09:03.166Z,53.56
2023-02-16T21:14:06.606Z,53.52
2023-02-16T21:19:17.529Z,53.49
2023-02-16T21:24:23.415Z,53.31
2023-02-16T21:29:25.537Z,52.85
2023-02-16T21:34:27.838Z,53.07
2023-02-16T21:39:48.300Z,53.05
2023-02-16T21:45:10.344Z,53.27
2023-02-16T21:50:12.414Z,53.41
2023-02-16T21:55:33.112Z,53.21
2023-02-16T22:00:36.157Z,53.13
2023-02-16T22:05:38.440Z,52.71
2023-02-16T22:10:40.826Z,52.88
2023-02-16T22:15:42.937Z,53.20
2023-02-16T22:20:45.235Z,53.29
2023-02-16T22:25:47.441Z,53.07
2023-02-16T22:30:49.555Z,53.13
2023-02-16T22:35:51.664Z,53.16
2023-02-16T22:40:53.755Z,52.81
2023-02-16T22:45:55.939Z,52.93
2023-02-16T22:51:02.552Z,53.23
2023-02-16T22:56:10.327Z,53.27
2023-02-16T23:01:18.751Z,53.36
2023-02-16T23:06:24.103Z,53.23
2023-02-16T23:11:27.962Z,53.28
2023-02-16T23:16:30.303Z,53.21
2023-02-16T23:21:33.470Z,52.99
2023-02-16T23:26:35.629Z,53.07
2023-02-16T23:31:40.154Z,53.26
2023-02-16T23:36:42.710Z,53.44
2023-02-16T23:41:45.592Z,53.37
2023-02-16T23:46:47.848Z,53.30
2023-02-16T23:51:50.015Z,53.03
2023-02-16T23:56:52.877Z,52.99
